sensor_id;sensor_type;location;lat;lon;timestamp;pressure;altitude;pressure_sealevel;temperature;humidity
18900;BME280;9582;52.018;6.306;2024-02-21T00:01:15;104180.81;;;8.69;100.00
18900;BME280;9582;52.018;6.306;2024-02-21T00:03:42;104179.97;;;8.69;100.00
18900;BME280;9582;52.018;6.306;2024-02-21T00:06:08;104168.66;;;8.70;100.00
18900;BME280;9582;52.018;6.306;2024-02-21T00:08:36;104163.44;;;8.68;100.00
18900;BME280;9582;52.018;6.306;2024-02-21T00:11:03;104158.16;;;8.65;100.00
18900;BME280;9582;52.018;6.306;2024-02-21T00:13:30;104156.38;;;8.64;100.00
18900;BME280;9582;52.018;6.306;2024-02-21T00:15:56;104145.97;;;8.64;100.00
18900;BME280;9582;52.018;6.306;2024-02-21T00:18:23;104145.06;;;8.64;100.00
18900;BME280;9582;52.018;6.306;2024-02-21T00:20:50;104126.75;;;8.61;100.00
18900;BME280;9582;52.018;6.306;2024-02-21T00:23:16;104130.19;;;8.58;100.00
18900;BME280;9582;52.018;6.306;2024-02-21T00:25:45;104126.69;;;8.55;100.00
18900;BME280;9582;52.018;6.306;2024-02-21T00:28:11;104123.16;;;8.53;100.00
18900;BME280;9582;52.018;6.306;2024-02-21T00:30:38;104124.88;;;8.51;100.00
18900;BME280;9582;52.018;6.306;2024-02-21T00:33:05;104117.81;;;8.45;100.00
18900;BME280;9582;52.018;6.306;2024-02-21T00:35:31;104098.66;;;8.43;100.00
18900;BME280;9582;52.018;6.306;2024-02-21T00:37:58;104100.41;;;8.43;100.00
18900;BME280;9582;52.018;6.306;2024-02-21T00:40:25;104102.94;;;8.40;100.00
18900;BME280;9582;52.018;6.306;2024-02-21T00:42:52;104091.63;;;8.39;100.00
18900;BME280;9582;52.018;6.306;2024-02-21T00:45:19;104081.16;;;8.36;100.00
18900;BME280;9582;52.018;6.306;2024-02-21T00:47:46;104062.00;;;8.34;100.00
18900;BME280;9582;52.018;6.306;2024-02-21T00:50:13;104066.38;;;8.35;100.00
18900;BME280;9582;52.018;6.306;2024-02-21T00:52:39;104060.28;;;8.36;100.00
18900;BME280;9582;52.018;6.306;2024-02-21T00:55:07;104069.88;;;8.37;100.00
18900;BME280;9582;52.018;6.306;2024-02-21T00:57:34;104057.72;;;8.38;100.00
18900;BME280;9582;52.018;6.306;2024-02-21T01:00:03;104032.50;;;8.38;100.00
18900;BME280;9582;52.018;6.306;2024-02-21T01:02:29;104015.13;;;8.39;100.00
18900;BME280;9582;52.018;6.306;2024-02-21T01:04:56;104002.91;;;8.36;100.00
18900;BME280;9582;52.018;6.306;2024-02-21T01:07:23;104004.66;;;8.36;100.00
18900;BME280;9582;52.018;6.306;2024-02-21T01:09:50;103983.78;;;8.34;100.00
18900;BME280;9582;52.018;6.306;2024-02-21T01:12:17;103979.41;;;8.33;100.00
18900;BME280;9582;52.018;6.306;2024-02-21T01:14:44;103975.91;;;8.33;100.00
18900;BME280;9582;52.018;6.306;2024-02-21T01:17:12;103985.50;;;8.34;100.00
18900;BME280;9582;52.018;6.306;2024-02-21T01:19:40;103982.94;;;8.35;100.00
18900;BME280;9582;52.018;6.306;2024-02-21T01:22:06;103970.78;;;8.37;100.00
18900;BME280;9582;52.018;6.306;2024-02-21T01:24:33;103965.56;;;8.37;100.00
18900;BME280;9582;52.018;6.306;2024-02-21T01:26:59;103970.78;;;8.37;100.00
18900;BME280;9582;52.018;6.306;2024-02-21T01:29:26;103962.97;;;8.37;100.00
18900;BME280;9582;52.018;6.306;2024-02-21T01:31:53;103954.31;;;8.40;100.00
18900;BME280;9582;52.018;6.306;2024-02-21T01:34:21;103954.31;;;8.41;100.00
18900;BME280;9582;52.018;6.306;2024-02-21T01:36:47;103956.06;;;8.41;100.00
18900;BME280;9582;52.018;6.306;2024-02-21T01:39:14;103943.91;;;8.43;100.00
18900;BME280;9582;52.018;6.306;2024-02-21T01:41:40;103945.69;;;8.47;100.00
18900;BME280;9582;52.018;6.306;2024-02-21T01:44:07;103954.44;;;8.50;100.00
18900;BME280;9582;52.018;6.306;2024-02-21T01:46:34;103957.94;;;8.51;100.00
18900;BME280;9582;52.018;6.306;2024-02-21T01:49:01;103958.81;;;8.53;100.00
18900;BME280;9582;52.018;6.306;2024-02-21T01:51:30;103962.34;;;8.55;100.00
18900;BME280;9582;52.018;6.306;2024-02-21T01:53:57;103958.91;;;8.57;100.00
18900;BME280;9582;52.018;6.306;2024-02-21T01:56:24;103962.41;;;8.58;100.00
18900;BME280;9582;52.018;6.306;2024-02-21T01:58:51;103960.63;;;8.58;100.00
18900;BME280;9582;52.018;6.306;2024-02-21T02:01:18;103954.56;;;8.61;100.00
18900;BME280;9582;52.018;6.306;2024-02-21T02:03:45;103955.50;;;8.63;100.00
18900;BME280;9582;52.018;6.306;2024-02-21T02:06:12;103951.16;;;8.63;100.00
18900;BME280;9582;52.018;6.306;2024-02-21T02:08:41;103946.78;;;8.64;100.00
18900;BME280;9582;52.018;6.306;2024-02-21T02:11:08;103952.06;;;8.65;100.00
18900;BME280;9582;52.018;6.306;2024-02-21T02:13:35;103941.63;;;8.65;100.00
18900;BME280;9582;52.018;6.306;2024-02-21T02:16:01;103939.88;;;8.66;100.00
18900;BME280;9582;52.018;6.306;2024-02-21T02:18:29;103936.41;;;8.65;100.00
18900;BME280;9582;52.018;6.306;2024-02-21T02:20:55;103934.69;;;8.67;100.00
18900;BME280;9582;52.018;6.306;2024-02-21T02:23:24;103939.91;;;8.67;100.00
18900;BME280;9582;52.018;6.306;2024-02-21T02:25:51;103941.63;;;8.67;100.00
18900;BME280;9582;52.018;6.306;2024-02-21T02:28:18;103936.41;;;8.67;100.00
18900;BME280;9582;52.018;6.306;2024-02-21T02:30:45;103937.28;;;8.67;100.00
18900;BME280;9582;52.018;6.306;2024-02-21T02:33:12;103938.16;;;8.68;100.00
18900;BME280;9582;52.018;6.306;2024-02-21T02:35:39;103926.84;;;8.67;100.00
18900;BME280;9582;52.018;6.306;2024-02-21T02:38:05;103934.72;;;8.69;100.00
18900;BME280;9582;52.018;6.306;2024-02-21T02:40:34;103936.44;;;8.68;100.00
18900;BME280;9582;52.018;6.306;2024-02-21T02:43:01;103935.56;;;8.68;100.00
18900;BME280;9582;52.018;6.306;2024-02-21T02:45:29;103927.78;;;8.71;100.00
18900;BME280;9582;52.018;6.306;2024-02-21T02:47:57;103938.22;;;8.71;100.00
18900;BME280;9582;52.018;6.306;2024-02-21T02:50:24;103923.41;;;8.70;100.00
18900;BME280;9582;52.018;6.306;2024-02-21T02:52:51;103922.50;;;8.68;100.00
18900;BME280;9582;52.018;6.306;2024-02-21T02:55:18;103930.34;;;8.68;100.00
18900;BME280;9582;52.018;6.306;2024-02-21T02:57:46;103912.97;;;8.68;100.00
18900;BME280;9582;52.018;6.306;2024-02-21T03:00:14;103918.19;;;8.68;100.00
18900;BME280;9582;52.018;6.306;2024-02-21T03:02:42;103919.09;;;8.72;100.00
18900;BME280;9582;52.018;6.306;2024-02-21T03:05:14;103918.22;;;8.72;100.00
18900;BME280;9582;52.018;6.306;2024-02-21T03:07:41;103924.28;;;8.69;100.00
18900;BME280;9582;52.018;6.306;2024-02-21T03:10:08;103927.72;;;8.68;100.00
18900;BME280;9582;52.018;6.306;2024-02-21T03:12:35;103929.50;;;8.69;100.00
18900;BME280;9582;52.018;6.306;2024-02-21T03:15:02;103925.13;;;8.69;100.00
18900;BME280;9582;52.018;6.306;2024-02-21T03:17:29;103913.84;;;8.69;100.00
18900;BME280;9582;52.018;6.306;2024-02-21T03:19:55;103907.75;;;8.68;100.00
18900;BME280;9582;52.018;6.306;2024-02-21T03:22:22;103911.22;;;8.69;100.00
18900;BME280;9582;52.018;6.306;2024-02-21T03:24:49;103911.22;;;8.69;100.00
18900;BME280;9582;52.018;6.306;2024-02-21T03:27:16;103909.47;;;8.69;100.00
18900;BME280;9582;52.018;6.306;2024-02-21T03:29:42;103898.19;;;8.69;100.00
18900;BME280;9582;52.018;6.306;2024-02-21T03:32:10;103908.63;;;8.69;100.00
18900;BME280;9582;52.018;6.306;2024-02-21T03:34:37;103905.97;;;8.67;100.00
18900;BME280;9582;52.018;6.306;2024-02-21T03:37:03;103905.97;;;8.67;100.00
18900;BME280;9582;52.018;6.306;2024-02-21T03:39:31;103899.00;;;8.66;100.00
18900;BME280;9582;52.018;6.306;2024-02-21T03:41:58;103895.53;;;8.66;100.00
18900;BME280;9582;52.018;6.306;2024-02-21T03:44:25;103887.72;;;8.66;100.00
18900;BME280;9582;52.018;6.306;2024-02-21T03:46:52;103879.88;;;8.66;100.00
18900;BME280;9582;52.018;6.306;2024-02-21T03:49:20;103889.44;;;8.65;100.00
18900;BME280;9582;52.018;6.306;2024-02-21T03:51:47;103879.00;;;8.65;100.00
18900;BME280;9582;52.018;6.306;2024-02-21T03:54:14;103870.31;;;8.66;100.00
18900;BME280;9582;52.018;6.306;2024-02-21T03:56:40;103860.75;;;8.65;100.00
18900;BME280;9582;52.018;6.306;2024-02-21T03:59:07;103855.53;;;8.65;100.00
18900;BME280;9582;52.018;6.306;2024-02-21T04:01:34;103850.28;;;8.64;100.00
18900;BME280;9582;52.018;6.306;2024-02-21T04:04:00;103849.44;;;8.65;100.00
18900;BME280;9582;52.018;6.306;2024-02-21T04:06:28;103847.66;;;8.64;100.00
18900;BME280;9582;52.018;6.306;2024-02-21T04:08:56;103859.88;;;8.65;100.00
18900;BME280;9582;52.018;6.306;2024-02-21T04:11:22;103851.19;;;8.66;100.00
18900;BME280;9582;52.018;6.306;2024-02-21T04:13:49;103846.81;;;8.65;100.00
18900;BME280;9582;52.018;6.306;2024-02-21T04:16:16;103840.75;;;8.66;100.00
18900;BME280;9582;52.018;6.306;2024-02-21T04:18:43;103828.56;;;8.66;100.00
18900;BME280;9582;52.018;6.306;2024-02-21T04:21:11;103819.88;;;8.66;100.00
18900;BME280;9582;52.018;6.306;2024-02-21T04:23:41;103819.00;;;8.65;100.00
18900;BME280;9582;52.018;6.306;2024-02-21T04:26:08;103829.44;;;8.67;100.00
18900;BME280;9582;52.018;6.306;2024-02-21T04:28:35;103827.72;;;8.66;100.00
18900;BME280;9582;52.018;6.306;2024-02-21T04:31:01;103829.44;;;8.67;100.00
18900;BME280;9582;52.018;6.306;2024-02-21T04:33:28;103825.94;;;8.66;100.00
18900;BME280;9582;52.018;6.306;2024-02-21T04:35:55;103825.09;;;8.66;100.00
18900;BME280;9582;52.018;6.306;2024-02-21T04:38:21;103817.28;;;8.66;100.00
18900;BME280;9582;52.018;6.306;2024-02-21T04:40:49;103814.66;;;8.66;100.00
18900;BME280;9582;52.018;6.306;2024-02-21T04:43:16;103802.47;;;8.65;100.00
18900;BME280;9582;52.018;6.306;2024-02-21T04:45:42;103810.28;;;8.65;100.00
18900;BME280;9582;52.018;6.306;2024-02-21T04:48:09;103805.94;;;8.64;100.00
18900;BME280;9582;52.018;6.306;2024-02-21T04:50:35;103798.97;;;8.64;100.00
18900;BME280;9582;52.018;6.306;2024-02-21T04:53:02;103792.03;;;8.63;100.00
18900;BME280;9582;52.018;6.306;2024-02-21T04:55:29;103791.16;;;8.63;100.00
18900;BME280;9582;52.018;6.306;2024-02-21T04:57:57;103781.56;;;8.62;100.00
18900;BME280;9582;52.018;6.306;2024-02-21T05:00:24;103778.97;;;8.62;100.00
18900;BME280;9582;52.018;6.306;2024-02-21T05:02:50;103766.78;;;8.62;100.00
18900;BME280;9582;52.018;6.306;2024-02-21T05:05:17;103761.56;;;8.62;100.00
18900;BME280;9582;52.018;6.306;2024-02-21T05:07:43;103758.09;;;8.62;100.00
18900;BME280;9582;52.018;6.306;2024-02-21T05:10:10;103756.34;;;8.62;100.00
18900;BME280;9582;52.018;6.306;2024-02-21T05:12:37;103755.47;;;8.62;100.00
18900;BME280;9582;52.018;6.306;2024-02-21T05:15:06;103749.41;;;8.63;100.00
18900;BME280;9582;52.018;6.306;2024-02-21T05:17:33;103750.25;;;8.62;100.00
18900;BME280;9582;52.018;6.306;2024-02-21T05:19:59;103737.22;;;8.62;100.00
18900;BME280;9582;52.018;6.306;2024-02-21T05:22:26;103739.81;;;8.62;100.00
18900;BME280;9582;52.018;6.306;2024-02-21T05:24:52;103739.81;;;8.62;100.00
18900;BME280;9582;52.018;6.306;2024-02-21T05:27:19;103738.06;;;8.61;100.00
18900;BME280;9582;52.018;6.306;2024-02-21T05:29:46;103738.09;;;8.62;100.00
18900;BME280;9582;52.018;6.306;2024-02-21T05:32:15;103732.00;;;8.62;100.00
18900;BME280;9582;52.018;6.306;2024-02-21T05:34:41;103724.19;;;8.62;100.00
18900;BME280;9582;52.018;6.306;2024-02-21T05:37:08;103725.03;;;8.61;100.00
18900;BME280;9582;52.018;6.306;2024-02-21T05:39:34;103730.25;;;8.61;100.00
18900;BME280;9582;52.018;6.306;2024-02-21T05:42:01;103726.78;;;8.60;100.00
18900;BME280;9582;52.018;6.306;2024-02-21T05:44:28;103718.09;;;8.60;100.00
18900;BME280;9582;52.018;6.306;2024-02-21T05:46:54;103711.09;;;8.59;100.00
18900;BME280;9582;52.018;6.306;2024-02-21T05:49:22;103723.28;;;8.60;100.00
18900;BME280;9582;52.018;6.306;2024-02-21T05:51:49;103712.84;;;8.58;100.00
18900;BME280;9582;52.018;6.306;2024-02-21T05:54:16;103701.56;;;8.58;100.00
18900;BME280;9582;52.018;6.306;2024-02-21T05:56:44;103694.56;;;8.57;100.00
18900;BME280;9582;52.018;6.306;2024-02-21T05:59:11;103694.56;;;8.57;100.00
18900;BME280;9582;52.018;6.306;2024-02-21T06:01:37;103685.88;;;8.55;100.00
18900;BME280;9582;52.018;6.306;2024-02-21T06:04:04;103684.09;;;8.55;100.00
18900;BME280;9582;52.018;6.306;2024-02-21T06:06:32;103667.59;;;8.53;100.00
18900;BME280;9582;52.018;6.306;2024-02-21T06:08:59;103650.19;;;8.52;100.00
18900;BME280;9582;52.018;6.306;2024-02-21T06:11:28;103648.44;;;8.53;100.00
18900;BME280;9582;52.018;6.306;2024-02-21T06:13:55;103641.47;;;8.50;100.00
18900;BME280;9582;52.018;6.306;2024-02-21T06:16:21;103637.09;;;8.48;100.00
18900;BME280;9582;52.018;6.306;2024-02-21T06:18:48;103635.34;;;8.47;100.00
18900;BME280;9582;52.018;6.306;2024-02-21T06:21:14;103636.22;;;8.46;100.00
18900;BME280;9582;52.018;6.306;2024-02-21T06:23:43;103632.75;;;8.45;100.00
18900;BME280;9582;52.018;6.306;2024-02-21T06:26:09;103633.63;;;8.46;100.00
18900;BME280;9582;52.018;6.306;2024-02-21T06:28:36;103629.25;;;8.45;100.00
18900;BME280;9582;52.018;6.306;2024-02-21T06:31:03;103620.59;;;8.46;100.00
18900;BME280;9582;52.018;6.306;2024-02-21T06:33:30;103623.19;;;8.46;100.00
18900;BME280;9582;52.018;6.306;2024-02-21T06:35:56;103614.47;;;8.47;100.00
18900;BME280;9582;52.018;6.306;2024-02-21T06:38:23;103615.38;;;8.47;100.00
18900;BME280;9582;52.018;6.306;2024-02-21T06:40:51;103611.03;;;8.48;100.00
18900;BME280;9582;52.018;6.306;2024-02-21T06:43:20;103614.50;;;8.50;100.00
18900;BME280;9582;52.018;6.306;2024-02-21T06:45:47;103605.84;;;8.49;100.00
18900;BME280;9582;52.018;6.306;2024-02-21T06:48:17;103605.84;;;8.49;100.00
18900;BME280;9582;52.018;6.306;2024-02-21T06:50:44;103613.66;;;8.49;100.00
18900;BME280;9582;52.018;6.306;2024-02-21T06:53:11;103615.38;;;8.50;100.00
18900;BME280;9582;52.018;6.306;2024-02-21T06:55:37;103604.97;;;8.50;100.00
18900;BME280;9582;52.018;6.306;2024-02-21T06:58:06;103604.09;;;8.50;100.00
18900;BME280;9582;52.018;6.306;2024-02-21T07:00:37;103597.13;;;8.49;100.00
18900;BME280;9582;52.018;6.306;2024-02-21T07:03:03;103597.13;;;8.50;100.00
18900;BME280;9582;52.018;6.306;2024-02-21T07:05:30;103589.31;;;8.50;100.00
18900;BME280;9582;52.018;6.306;2024-02-21T07:07:57;103585.81;;;8.50;100.00
18900;BME280;9582;52.018;6.306;2024-02-21T07:10:23;103584.13;;;8.52;100.00
18900;BME280;9582;52.018;6.306;2024-02-21T07:12:50;103588.47;;;8.53;100.00
18900;BME280;9582;52.018;6.306;2024-02-21T07:15:19;103593.69;;;8.54;100.00
18900;BME280;9582;52.018;6.306;2024-02-21T07:17:46;103585.88;;;8.54;100.00
18900;BME280;9582;52.018;6.306;2024-02-21T07:20:12;103590.25;;;8.57;100.00
18900;BME280;9582;52.018;6.306;2024-02-21T07:22:39;103583.25;;;8.56;100.00
18900;BME280;9582;52.018;6.306;2024-02-21T07:25:06;103583.28;;;8.59;100.00
18900;BME280;9582;52.018;6.306;2024-02-21T07:27:33;103576.34;;;8.58;100.00
18900;BME280;9582;52.018;6.306;2024-02-21T07:30:00;103575.47;;;8.59;100.00
18900;BME280;9582;52.018;6.306;2024-02-21T07:32:28;103575.50;;;8.60;100.00
18900;BME280;9582;52.018;6.306;2024-02-21T07:34:54;103574.66;;;8.63;100.00
18900;BME280;9582;52.018;6.306;2024-02-21T07:37:21;103566.81;;;8.64;100.00
18900;BME280;9582;52.018;6.306;2024-02-21T07:39:48;103569.44;;;8.66;100.00
18900;BME280;9582;52.018;6.306;2024-02-21T07:42:14;103572.94;;;8.68;100.00
18900;BME280;9582;52.018;6.306;2024-02-21T07:44:41;103568.59;;;8.70;100.00
18900;BME280;9582;52.018;6.306;2024-02-21T07:47:08;103578.19;;;8.71;100.00
18900;BME280;9582;52.018;6.306;2024-02-21T07:49:43;103586.88;;;8.72;100.00
18900;BME280;9582;52.018;6.306;2024-02-21T07:52:10;103573.84;;;8.75;100.00
18900;BME280;9582;52.018;6.306;2024-02-21T07:54:37;103578.22;;;8.77;100.00
18900;BME280;9582;52.018;6.306;2024-02-21T07:57:04;103594.75;;;8.79;100.00
18900;BME280;9582;52.018;6.306;2024-02-21T07:59:30;103592.16;;;8.82;100.00
18900;BME280;9582;52.018;6.306;2024-02-21T08:01:57;103586.94;;;8.82;100.00
18900;BME280;9582;52.018;6.306;2024-02-21T08:04:24;103580.88;;;8.83;100.00
18900;BME280;9582;52.018;6.306;2024-02-21T08:06:52;103581.72;;;8.84;100.00
18900;BME280;9582;52.018;6.306;2024-02-21T08:09:21;103563.44;;;8.84;100.00
18900;BME280;9582;52.018;6.306;2024-02-21T08:11:48;103567.84;;;8.86;100.00
18900;BME280;9582;52.018;6.306;2024-02-21T08:14:15;103548.69;;;8.86;100.00
18900;BME280;9582;52.018;6.306;2024-02-21T08:16:42;103550.44;;;8.87;100.00
18900;BME280;9582;52.018;6.306;2024-02-21T08:19:10;103546.97;;;8.89;100.00
18900;BME280;9582;52.018;6.306;2024-02-21T08:21:37;103547.00;;;8.94;100.00
18900;BME280;9582;52.018;6.306;2024-02-21T08:24:05;103538.31;;;8.96;100.00
18900;BME280;9582;52.018;6.306;2024-02-21T08:26:32;103540.97;;;9.02;100.00
18900;BME280;9582;52.018;6.306;2024-02-21T08:28:59;103540.09;;;9.06;100.00
18900;BME280;9582;52.018;6.306;2024-02-21T08:31:26;103547.94;;;9.09;100.00
18900;BME280;9582;52.018;6.306;2024-02-21T08:33:56;103550.56;;;9.12;100.00
18900;BME280;9582;52.018;6.306;2024-02-21T08:36:27;103547.97;;;9.15;100.00
18900;BME280;9582;52.018;6.306;2024-02-21T08:38:54;103545.38;;;9.18;100.00
18900;BME280;9582;52.018;6.306;2024-02-21T08:41:23;103541.06;;;9.25;100.00
18900;BME280;9582;52.018;6.306;2024-02-21T08:43:50;103534.09;;;9.28;100.00
18900;BME280;9582;52.018;6.306;2024-02-21T08:46:16;103542.84;;;9.34;100.00
18900;BME280;9582;52.018;6.306;2024-02-21T08:48:43;103534.13;;;9.33;100.00
18900;BME280;9582;52.018;6.306;2024-02-21T08:51:11;103539.38;;;9.36;100.00
18900;BME280;9582;52.018;6.306;2024-02-21T08:53:38;103545.47;;;9.40;100.00
18900;BME280;9582;52.018;6.306;2024-02-21T08:56:05;103541.13;;;9.42;100.00
18900;BME280;9582;52.018;6.306;2024-02-21T08:58:34;103546.31;;;9.40;100.00
18900;BME280;9582;52.018;6.306;2024-02-21T09:01:02;103555.06;;;9.42;100.00
18900;BME280;9582;52.018;6.306;2024-02-21T09:03:31;103555.91;;;9.43;100.00
18900;BME280;9582;52.018;6.306;2024-02-21T09:05:58;103563.75;;;9.46;100.00
18900;BME280;9582;52.018;6.306;2024-02-21T09:08:24;103553.31;;;9.44;100.00
18900;BME280;9582;52.018;6.306;2024-02-21T09:10:51;103555.94;;;9.49;100.00
18900;BME280;9582;52.018;6.306;2024-02-21T09:13:18;103549.84;;;9.51;100.00
18900;BME280;9582;52.018;6.306;2024-02-21T09:15:47;103547.25;;;9.53;100.00
18900;BME280;9582;52.018;6.306;2024-02-21T09:18:14;103542.91;;;9.56;100.00
18900;BME280;9582;52.018;6.306;2024-02-21T09:20:40;103543.78;;;9.58;100.00
18900;BME280;9582;52.018;6.306;2024-02-21T09:23:07;103555.97;;;9.61;100.00
18900;BME280;9582;52.018;6.306;2024-02-21T09:25:34;103547.28;;;9.65;100.00
18900;BME280;9582;52.018;6.306;2024-02-21T09:28:01;103558.63;;;9.67;100.00
18900;BME280;9582;52.018;6.306;2024-02-21T09:30:28;103541.19;;;9.69;100.00
18900;BME280;9582;52.018;6.306;2024-02-21T09:32:57;103548.16;;;9.68;100.00
18900;BME280;9582;52.018;6.306;2024-02-21T09:35:25;103543.81;;;9.72;100.00
18900;BME280;9582;52.018;6.306;2024-02-21T09:37:52;103532.47;;;9.71;100.00
18900;BME280;9582;52.018;6.306;2024-02-21T09:40:18;103513.34;;;9.72;100.00
18900;BME280;9582;52.018;6.306;2024-02-21T09:42:47;103511.56;;;9.71;100.00
18900;BME280;9582;52.018;6.306;2024-02-21T09:45:19;103490.69;;;9.70;100.00
18900;BME280;9582;52.018;6.306;2024-02-21T09:47:54;103493.31;;;9.70;100.00
18900;BME280;9582;52.018;6.306;2024-02-21T09:50:27;103494.19;;;9.73;100.00
18900;BME280;9582;52.018;6.306;2024-02-21T09:52:55;103491.56;;;9.73;100.00
18900;BME280;9582;52.018;6.306;2024-02-21T09:55:23;103488.09;;;9.79;100.00
18900;BME280;9582;52.018;6.306;2024-02-21T09:57:51;103469.78;;;9.77;100.00
18900;BME280;9582;52.018;6.306;2024-02-21T10:00:18;103476.75;;;9.83;100.00
18900;BME280;9582;52.018;6.306;2024-02-21T10:02:47;103461.94;;;9.80;100.00
18900;BME280;9582;52.018;6.306;2024-02-21T10:05:14;103459.34;;;9.80;100.00
18900;BME280;9582;52.018;6.306;2024-02-21T10:07:42;103455.88;;;9.84;100.00
18900;BME280;9582;52.018;6.306;2024-02-21T10:10:09;103447.16;;;9.87;100.00
18900;BME280;9582;52.018;6.306;2024-02-21T10:12:36;103432.31;;;9.89;100.00
18900;BME280;9582;52.018;6.306;2024-02-21T10:15:03;103446.25;;;9.91;100.00
18900;BME280;9582;52.018;6.306;2024-02-21T10:17:30;103432.31;;;9.95;100.00
18900;BME280;9582;52.018;6.306;2024-02-21T10:20:07;103430.56;;;9.94;100.00
18900;BME280;9582;52.018;6.306;2024-02-21T10:22:34;103427.09;;;9.92;100.00
18900;BME280;9582;52.018;6.306;2024-02-21T10:25:08;103415.78;;;9.87;100.00
18900;BME280;9582;52.018;6.306;2024-02-21T10:27:34;103420.13;;;9.88;100.00
18900;BME280;9582;52.018;6.306;2024-02-21T10:30:03;103407.94;;;9.84;100.00
18900;BME280;9582;52.018;6.306;2024-02-21T10:32:29;103397.50;;;9.87;100.00
18900;BME280;9582;52.018;6.306;2024-02-21T10:35:01;103368.72;;;9.88;100.00
18900;BME280;9582;52.018;6.306;2024-02-21T10:37:28;103358.25;;;9.95;100.00
18900;BME280;9582;52.018;6.306;2024-02-21T10:39:54;103334.75;;;9.90;100.00
18900;BME280;9582;52.018;6.306;2024-02-21T10:42:28;103326.91;;;9.88;100.00
18900;BME280;9582;52.018;6.306;2024-02-21T10:45:00;103304.28;;;9.83;100.00
18900;BME280;9582;52.018;6.306;2024-02-21T10:47:31;103293.84;;;9.78;100.00
18900;BME280;9582;52.018;6.306;2024-02-21T10:50:03;103279.03;;;9.76;100.00
18900;BME280;9582;52.018;6.306;2024-02-21T10:52:41;103259.00;;;9.72;100.00
18900;BME280;9582;52.018;6.306;2024-02-21T10:55:18;103215.50;;;9.65;100.00
18900;BME280;9582;52.018;6.306;2024-02-21T10:57:49;103191.13;;;9.55;100.00
18900;BME280;9582;52.018;6.306;2024-02-21T11:00:18;103172.88;;;9.45;100.00
18900;BME280;9582;52.018;6.306;2024-02-21T11:02:45;103173.78;;;9.39;100.00
18900;BME280;9582;52.018;6.306;2024-02-21T11:05:13;103165.06;;;9.36;100.00
18900;BME280;9582;52.018;6.306;2024-02-21T11:07:41;103168.56;;;9.33;100.00
18900;BME280;9582;52.018;6.306;2024-02-21T11:10:20;103151.16;;;9.31;100.00
18900;BME280;9582;52.018;6.306;2024-02-21T11:12:47;103117.22;;;9.31;100.00
18900;BME280;9582;52.018;6.306;2024-02-21T11:15:15;103098.03;;;9.32;100.00
18900;BME280;9582;52.018;6.306;2024-02-21T11:17:53;103084.13;;;9.34;100.00
18900;BME280;9582;52.018;6.306;2024-02-21T11:20:21;103076.25;;;9.37;100.00
18900;BME280;9582;52.018;6.306;2024-02-21T11:22:57;103061.44;;;9.47;100.00
18900;BME280;9582;52.018;6.306;2024-02-21T11:25:24;103034.41;;;9.52;100.00
18900;BME280;9582;52.018;6.306;2024-02-21T11:27:59;103035.25;;;9.62;100.00
18900;BME280;9582;52.018;6.306;2024-02-21T11:30:29;103017.78;;;9.68;100.00
18900;BME280;9582;52.018;6.306;2024-02-21T11:33:00;103016.91;;;9.72;100.00
18900;BME280;9582;52.018;6.306;2024-02-21T11:35:31;103013.38;;;9.78;100.00
18900;BME280;9582;52.018;6.306;2024-02-21T11:38:08;103000.34;;;9.73;100.00
18900;BME280;9582;52.018;6.306;2024-02-21T11:40:38;103002.06;;;9.74;100.00
18900;BME280;9582;52.018;6.306;2024-02-21T11:43:05;103027.34;;;9.72;100.00
18900;BME280;9582;52.018;6.306;2024-02-21T11:45:33;103049.97;;;9.75;100.00
18900;BME280;9582;52.018;6.306;2024-02-21T11:48:00;103069.13;;;9.75;100.00
18900;BME280;9582;52.018;6.306;2024-02-21T11:50:29;103076.09;;;9.76;100.00
18900;BME280;9582;52.018;6.306;2024-02-21T11:52:56;103072.63;;;9.76;100.00
18900;BME280;9582;52.018;6.306;2024-02-21T11:55:23;103102.25;;;9.76;100.00
18900;BME280;9582;52.018;6.306;2024-02-21T11:57:50;103096.13;;;9.77;100.00
18900;BME280;9582;52.018;6.306;2024-02-21T12:00:18;103083.06;;;9.74;100.00
18900;BME280;9582;52.018;6.306;2024-02-21T12:02:47;103072.59;;;9.74;100.00
18900;BME280;9582;52.018;6.306;2024-02-21T12:05:15;103059.56;;;9.73;100.00
18900;BME280;9582;52.018;6.306;2024-02-21T12:07:42;103057.81;;;9.75;100.00
18900;BME280;9582;52.018;6.306;2024-02-21T12:10:10;103029.94;;;9.74;100.00
18900;BME280;9582;52.018;6.306;2024-02-21T12:12:37;103047.34;;;9.75;100.00
18900;BME280;9582;52.018;6.306;2024-02-21T12:15:04;103056.97;;;9.70;100.00
18900;BME280;9582;52.018;6.306;2024-02-21T12:17:32;103069.19;;;9.66;100.00
18900;BME280;9582;52.018;6.306;2024-02-21T12:20:02;103063.09;;;9.63;100.00
18900;BME280;9582;52.018;6.306;2024-02-21T12:22:30;103046.56;;;9.62;100.00
18900;BME280;9582;52.018;6.306;2024-02-21T12:24:58;103047.44;;;9.61;100.00
18900;BME280;9582;52.018;6.306;2024-02-21T12:27:25;103041.34;;;9.61;100.00
18900;BME280;9582;52.018;6.306;2024-02-21T12:29:52;103034.38;;;9.61;100.00
18900;BME280;9582;52.018;6.306;2024-02-21T12:32:18;103020.44;;;9.61;100.00
18900;BME280;9582;52.018;6.306;2024-02-21T12:34:45;103006.50;;;9.63;100.00
18900;BME280;9582;52.018;6.306;2024-02-21T12:37:13;102998.59;;;9.71;100.00
18900;BME280;9582;52.018;6.306;2024-02-21T12:39:41;102995.13;;;9.73;100.00
18900;BME280;9582;52.018;6.306;2024-02-21T12:42:08;102998.53;;;9.80;100.00
18900;BME280;9582;52.018;6.306;2024-02-21T12:44:36;102996.75;;;9.86;100.00
18900;BME280;9582;52.018;6.306;2024-02-21T12:47:03;102995.84;;;9.92;100.00
18900;BME280;9582;52.018;6.306;2024-02-21T12:49:30;102999.25;;;10.05;100.00
18900;BME280;9582;52.018;6.306;2024-02-21T12:51:57;102985.25;;;10.15;100.00
18900;BME280;9582;52.018;6.306;2024-02-21T12:54:25;102997.34;;;10.25;100.00
18900;BME280;9582;52.018;6.306;2024-02-21T12:56:52;103016.50;;;10.30;100.00
18900;BME280;9582;52.018;6.306;2024-02-21T12:59:19;103040.00;;;10.31;100.00
18900;BME280;9582;52.018;6.306;2024-02-21T13:01:46;103052.19;;;10.38;100.00